sensor_id;sensor_type;location;lat;lon;timestamp;temperature;humidity
23291;DHT22;11814;44.686;10.842;2023-04-09T00:02:15;12.10;99.90
23291;DHT22;11814;44.686;10.842;2023-04-09T00:04:40;12.10;99.90
23291;DHT22;11814;44.686;10.842;2023-04-09T00:07:06;12.10;99.90
23291;DHT22;11814;44.686;10.842;2023-04-09T00:09:32;12.10;99.90
23291;DHT22;11814;44.686;10.842;2023-04-09T00:11:57;12.10;99.90
23291;DHT22;11814;44.686;10.842;2023-04-09T00:14:23;12.10;99.90
23291;DHT22;11814;44.686;10.842;2023-04-09T00:16:49;12.00;99.90
23291;DHT22;11814;44.686;10.842;2023-04-09T00:19:15;12.00;99.90
23291;DHT22;11814;44.686;10.842;2023-04-09T00:21:41;12.00;99.90
23291;DHT22;11814;44.686;10.842;2023-04-09T00:24:07;12.00;99.90
23291;DHT22;11814;44.686;10.842;2023-04-09T00:26:33;11.90;99.90
23291;DHT22;11814;44.686;10.842;2023-04-09T00:28:58;11.90;99.90
23291;DHT22;11814;44.686;10.842;2023-04-09T00:31:25;11.90;99.90
23291;DHT22;11814;44.686;10.842;2023-04-09T00:33:50;11.90;99.90
23291;DHT22;11814;44.686;10.842;2023-04-09T00:36:16;11.90;99.90
23291;DHT22;11814;44.686;10.842;2023-04-09T00:38:42;11.80;99.90
23291;DHT22;11814;44.686;10.842;2023-04-09T00:41:08;11.80;99.90
23291;DHT22;11814;44.686;10.842;2023-04-09T00:43:34;11.70;99.90
23291;DHT22;11814;44.686;10.842;2023-04-09T00:45:59;11.70;99.90
23291;DHT22;11814;44.686;10.842;2023-04-09T00:48:26;11.70;99.90
23291;DHT22;11814;44.686;10.842;2023-04-09T00:50:52;11.70;99.90
23291;DHT22;11814;44.686;10.842;2023-04-09T00:53:18;11.60;99.90
23291;DHT22;11814;44.686;10.842;2023-04-09T00:55:44;11.70;99.90
23291;DHT22;11814;44.686;10.842;2023-04-09T00:58:10;11.60;99.90
23291;DHT22;11814;44.686;10.842;2023-04-09T01:00:36;11.60;99.90
23291;DHT22;11814;44.686;10.842;2023-04-09T01:03:04;11.60;99.90
23291;DHT22;11814;44.686;10.842;2023-04-09T01:11:16;11.60;99.90
23291;DHT22;11814;44.686;10.842;2023-04-09T01:14:03;11.60;99.90
23291;DHT22;11814;44.686;10.842;2023-04-09T01:16:31;11.60;99.90
23291;DHT22;11814;44.686;10.842;2023-04-09T01:19:04;11.60;99.90
23291;DHT22;11814;44.686;10.842;2023-04-09T01:21:32;11.60;99.90
23291;DHT22;11814;44.686;10.842;2023-04-09T01:24:39;11.60;99.90
23291;DHT22;11814;44.686;10.842;2023-04-09T01:27:08;11.70;99.90
23291;DHT22;11814;44.686;10.842;2023-04-09T01:29:52;11.50;99.90
23291;DHT22;11814;44.686;10.842;2023-04-09T01:32:20;11.50;99.90
23291;DHT22;11814;44.686;10.842;2023-04-09T01:34:47;11.40;99.90
23291;DHT22;11814;44.686;10.842;2023-04-09T01:37:14;11.40;99.90
23291;DHT22;11814;44.686;10.842;2023-04-09T01:39:41;11.40;99.90
23291;DHT22;11814;44.686;10.842;2023-04-09T01:42:08;11.40;99.90
23291;DHT22;11814;44.686;10.842;2023-04-09T01:44:38;11.40;99.90
23291;DHT22;11814;44.686;10.842;2023-04-09T01:47:05;11.40;99.90
23291;DHT22;11814;44.686;10.842;2023-04-09T01:49:32;11.40;99.90
23291;DHT22;11814;44.686;10.842;2023-04-09T01:51:58;11.40;99.90
23291;DHT22;11814;44.686;10.842;2023-04-09T01:54:24;11.40;99.90
23291;DHT22;11814;44.686;10.842;2023-04-09T01:56:49;11.40;99.90
23291;DHT22;11814;44.686;10.842;2023-04-09T01:59:15;11.40;99.90
23291;DHT22;11814;44.686;10.842;2023-04-09T02:04:13;11.40;99.90
23291;DHT22;11814;44.686;10.842;2023-04-09T02:06:47;11.40;99.90
23291;DHT22;11814;44.686;10.842;2023-04-09T02:09:19;11.40;99.90
23291;DHT22;11814;44.686;10.842;2023-04-09T02:11:46;11.30;99.90
23291;DHT22;11814;44.686;10.842;2023-04-09T02:14:14;11.30;99.90
23291;DHT22;11814;44.686;10.842;2023-04-09T02:16:41;11.30;99.90
23291;DHT22;11814;44.686;10.842;2023-04-09T02:19:07;11.20;99.90
23291;DHT22;11814;44.686;10.842;2023-04-09T02:21:33;11.20;99.90
23291;DHT22;11814;44.686;10.842;2023-04-09T02:23:58;11.30;99.90
23291;DHT22;11814;44.686;10.842;2023-04-09T02:26:24;11.20;99.90
23291;DHT22;11814;44.686;10.842;2023-04-09T02:28:50;11.30;99.90
23291;DHT22;11814;44.686;10.842;2023-04-09T02:31:16;11.30;99.90
23291;DHT22;11814;44.686;10.842;2023-04-09T02:33:42;11.20;99.90
23291;DHT22;11814;44.686;10.842;2023-04-09T02:36:11;11.20;99.90
23291;DHT22;11814;44.686;10.842;2023-04-09T02:38:39;11.20;99.90
23291;DHT22;11814;44.686;10.842;2023-04-09T02:41:06;11.10;99.90
23291;DHT22;11814;44.686;10.842;2023-04-09T02:43:31;11.10;99.90
23291;DHT22;11814;44.686;10.842;2023-04-09T02:45:57;11.10;99.90
23291;DHT22;11814;44.686;10.842;2023-04-09T02:48:23;11.10;99.90
23291;DHT22;11814;44.686;10.842;2023-04-09T02:50:48;11.10;99.90
23291;DHT22;11814;44.686;10.842;2023-04-09T02:53:14;11.10;99.90
23291;DHT22;11814;44.686;10.842;2023-04-09T02:55:40;11.10;99.90
23291;DHT22;11814;44.686;10.842;2023-04-09T02:58:06;11.10;99.90
23291;DHT22;11814;44.686;10.842;2023-04-09T03:00:32;11.10;99.90
23291;DHT22;11814;44.686;10.842;2023-04-09T03:02:58;11.10;99.90
23291;DHT22;11814;44.686;10.842;2023-04-09T03:05:24;11.10;99.90
23291;DHT22;11814;44.686;10.842;2023-04-09T03:07:50;11.00;99.90
23291;DHT22;11814;44.686;10.842;2023-04-09T03:10:15;11.00;99.90
23291;DHT22;11814;44.686;10.842;2023-04-09T03:12:41;11.00;99.90
23291;DHT22;11814;44.686;10.842;2023-04-09T03:15:09;11.00;99.90
23291;DHT22;11814;44.686;10.842;2023-04-09T03:17:35;11.00;99.90
23291;DHT22;11814;44.686;10.842;2023-04-09T03:20:01;11.00;99.90
23291;DHT22;11814;44.686;10.842;2023-04-09T03:22:27;10.90;99.90
23291;DHT22;11814;44.686;10.842;2023-04-09T03:24:53;11.00;99.90
23291;DHT22;11814;44.686;10.842;2023-04-09T03:27:19;11.00;99.90
23291;DHT22;11814;44.686;10.842;2023-04-09T03:29:45;11.00;99.90
23291;DHT22;11814;44.686;10.842;2023-04-09T03:32:10;11.00;99.90
23291;DHT22;11814;44.686;10.842;2023-04-09T03:34:36;11.00;99.90
23291;DHT22;11814;44.686;10.842;2023-04-09T03:37:02;11.00;99.90
23291;DHT22;11814;44.686;10.842;2023-04-09T03:39:28;11.00;99.90
23291;DHT22;11814;44.686;10.842;2023-04-09T03:41:56;11.10;99.90
23291;DHT22;11814;44.686;10.842;2023-04-09T03:44:23;11.10;99.90
23291;DHT22;11814;44.686;10.842;2023-04-09T03:46:49;11.10;99.90
23291;DHT22;11814;44.686;10.842;2023-04-09T03:49:14;11.10;99.90
23291;DHT22;11814;44.686;10.842;2023-04-09T03:51:40;11.20;99.90
23291;DHT22;11814;44.686;10.842;2023-04-09T03:54:06;11.20;99.90
23291;DHT22;11814;44.686;10.842;2023-04-09T03:56:32;11.20;99.90
23291;DHT22;11814;44.686;10.842;2023-04-09T03:58:57;11.20;99.90
23291;DHT22;11814;44.686;10.842;2023-04-09T04:01:23;11.20;99.90
23291;DHT22;11814;44.686;10.842;2023-04-09T04:03:49;11.20;99.90
23291;DHT22;11814;44.686;10.842;2023-04-09T04:06:15;11.20;99.90
23291;DHT22;11814;44.686;10.842;2023-04-09T04:08:40;11.20;99.90
23291;DHT22;11814;44.686;10.842;2023-04-09T04:11:06;11.20;99.90
23291;DHT22;11814;44.686;10.842;2023-04-09T04:13:32;11.20;99.90
23291;DHT22;11814;44.686;10.842;2023-04-09T04:15:58;11.10;99.90
23291;DHT22;11814;44.686;10.842;2023-04-09T04:18:23;11.10;99.90
23291;DHT22;11814;44.686;10.842;2023-04-09T04:20:49;11.10;99.90
23291;DHT22;11814;44.686;10.842;2023-04-09T04:23:15;11.10;99.90
23291;DHT22;11814;44.686;10.842;2023-04-09T04:25:41;11.10;99.90
23291;DHT22;11814;44.686;10.842;2023-04-09T04:28:07;11.10;99.90
23291;DHT22;11814;44.686;10.842;2023-04-09T04:30:33;11.10;99.90
23291;DHT22;11814;44.686;10.842;2023-04-09T04:32:59;11.10;99.90
23291;DHT22;11814;44.686;10.842;2023-04-09T04:35:25;11.10;99.90
23291;DHT22;11814;44.686;10.842;2023-04-09T04:37:50;11.10;99.90
23291;DHT22;11814;44.686;10.842;2023-04-09T04:40:16;11.00;99.90
23291;DHT22;11814;44.686;10.842;2023-04-09T04:42:42;10.90;99.90
23291;DHT22;11814;44.686;10.842;2023-04-09T04:45:08;10.90;99.90
23291;DHT22;11814;44.686;10.842;2023-04-09T04:47:34;10.90;99.90
23291;DHT22;11814;44.686;10.842;2023-04-09T04:50:00;10.80;99.90
23291;DHT22;11814;44.686;10.842;2023-04-09T04:52:26;10.80;99.90
23291;DHT22;11814;44.686;10.842;2023-04-09T04:54:52;10.70;99.90
23291;DHT22;11814;44.686;10.842;2023-04-09T04:57:17;10.60;99.90
23291;DHT22;11814;44.686;10.842;2023-04-09T04:59:43;10.50;99.90
23291;DHT22;11814;44.686;10.842;2023-04-09T05:02:09;10.40;99.90
23291;DHT22;11814;44.686;10.842;2023-04-09T05:04:35;10.40;99.90
23291;DHT22;11814;44.686;10.842;2023-04-09T05:07:01;10.40;99.90
23291;DHT22;11814;44.686;10.842;2023-04-09T05:09:27;10.40;99.90
23291;DHT22;11814;44.686;10.842;2023-04-09T05:11:52;10.40;99.90
23291;DHT22;11814;44.686;10.842;2023-04-09T05:14:18;10.40;99.90
23291;DHT22;11814;44.686;10.842;2023-04-09T05:16:45;10.50;99.90
23291;DHT22;11814;44.686;10.842;2023-04-09T05:19:11;10.50;99.90
23291;DHT22;11814;44.686;10.842;2023-04-09T05:21:37;10.50;99.90
23291;DHT22;11814;44.686;10.842;2023-04-09T05:24:03;10.70;99.90
23291;DHT22;11814;44.686;10.842;2023-04-09T05:26:29;10.90;99.90
23291;DHT22;11814;44.686;10.842;2023-04-09T05:28:55;11.10;99.90
23291;DHT22;11814;44.686;10.842;2023-04-09T05:31:21;11.30;99.90
23291;DHT22;11814;44.686;10.842;2023-04-09T05:33:46;11.80;99.90
23291;DHT22;11814;44.686;10.842;2023-04-09T05:36:16;12.40;99.90
23291;DHT22;11814;44.686;10.842;2023-04-09T05:38:43;13.00;99.90
23291;DHT22;11814;44.686;10.842;2023-04-09T05:41:10;13.20;99.90
23291;DHT22;11814;44.686;10.842;2023-04-09T05:43:36;13.10;99.90
23291;DHT22;11814;44.686;10.842;2023-04-09T05:46:01;13.00;99.90
23291;DHT22;11814;44.686;10.842;2023-04-09T05:48:27;12.90;99.90
23291;DHT22;11814;44.686;10.842;2023-04-09T05:50:53;12.80;99.90
23291;DHT22;11814;44.686;10.842;2023-04-09T05:53:19;12.70;99.90
23291;DHT22;11814;44.686;10.842;2023-04-09T05:55:46;12.50;99.90
23291;DHT22;11814;44.686;10.842;2023-04-09T05:58:14;12.40;99.90
23291;DHT22;11814;44.686;10.842;2023-04-09T06:00:40;12.20;99.90
23291;DHT22;11814;44.686;10.842;2023-04-09T06:03:08;12.10;99.90
23291;DHT22;11814;44.686;10.842;2023-04-09T06:05:34;12.00;99.90
23291;DHT22;11814;44.686;10.842;2023-04-09T06:08:00;11.90;99.90
23291;DHT22;11814;44.686;10.842;2023-04-09T06:10:26;11.90;99.90
23291;DHT22;11814;44.686;10.842;2023-04-09T06:12:52;11.90;99.90
23291;DHT22;11814;44.686;10.842;2023-04-09T06:15:18;11.90;99.90
23291;DHT22;11814;44.686;10.842;2023-04-09T06:17:43;11.90;99.90
23291;DHT22;11814;44.686;10.842;2023-04-09T06:20:09;11.90;99.90
23291;DHT22;11814;44.686;10.842;2023-04-09T06:22:36;12.10;99.90
23291;DHT22;11814;44.686;10.842;2023-04-09T06:25:01;12.20;99.90
23291;DHT22;11814;44.686;10.842;2023-04-09T06:27:27;12.40;99.90
23291;DHT22;11814;44.686;10.842;2023-04-09T06:29:53;12.60;99.90
23291;DHT22;11814;44.686;10.842;2023-04-09T06:32:19;12.60;99.90
23291;DHT22;11814;44.686;10.842;2023-04-09T06:34:45;12.70;99.90
23291;DHT22;11814;44.686;10.842;2023-04-09T06:37:10;12.80;99.90
23291;DHT22;11814;44.686;10.842;2023-04-09T06:39:36;12.90;99.90
23291;DHT22;11814;44.686;10.842;2023-04-09T06:42:02;13.00;99.90
23291;DHT22;11814;44.686;10.842;2023-04-09T06:44:31;13.20;99.90
23291;DHT22;11814;44.686;10.842;2023-04-09T06:46:57;13.30;99.90
23291;DHT22;11814;44.686;10.842;2023-04-09T06:49:23;13.50;99.90
23291;DHT22;11814;44.686;10.842;2023-04-09T06:51:48;13.80;99.90
23291;DHT22;11814;44.686;10.842;2023-04-09T06:54:18;14.10;99.90
23291;DHT22;11814;44.686;10.842;2023-04-09T06:56:44;14.30;99.90
23291;DHT22;11814;44.686;10.842;2023-04-09T06:59:10;14.60;99.30
23291;DHT22;11814;44.686;10.842;2023-04-09T07:01:36;14.70;98.20
23291;DHT22;11814;44.686;10.842;2023-04-09T07:04:03;14.70;97.00
23291;DHT22;11814;44.686;10.842;2023-04-09T07:06:29;14.60;96.80
23291;DHT22;11814;44.686;10.842;2023-04-09T07:08:54;14.50;96.50
23291;DHT22;11814;44.686;10.842;2023-04-09T07:11:20;14.30;96.20
23291;DHT22;11814;44.686;10.842;2023-04-09T07:13:46;14.20;96.20
23291;DHT22;11814;44.686;10.842;2023-04-09T07:16:12;14.00;96.20
23291;DHT22;11814;44.686;10.842;2023-04-09T07:18:37;14.00;96.50
23291;DHT22;11814;44.686;10.842;2023-04-09T07:21:03;14.10;96.60
23291;DHT22;11814;44.686;10.842;2023-04-09T07:23:32;14.30;96.40
23291;DHT22;11814;44.686;10.842;2023-04-09T07:26:03;14.20;96.20
23291;DHT22;11814;44.686;10.842;2023-04-09T07:28:29;14.30;96.10
23291;DHT22;11814;44.686;10.842;2023-04-09T07:30:55;14.50;95.80
23291;DHT22;11814;44.686;10.842;2023-04-09T07:33:21;14.50;95.00
23291;DHT22;11814;44.686;10.842;2023-04-09T07:35:47;14.50;94.60
23291;DHT22;11814;44.686;10.842;2023-04-09T07:38:12;14.70;94.30
23291;DHT22;11814;44.686;10.842;2023-04-09T07:40:38;14.80;94.20
23291;DHT22;11814;44.686;10.842;2023-04-09T07:43:04;14.90;93.80
23291;DHT22;11814;44.686;10.842;2023-04-09T07:45:30;14.80;93.20
23291;DHT22;11814;44.686;10.842;2023-04-09T07:47:56;14.70;93.00
23291;DHT22;11814;44.686;10.842;2023-04-09T07:50:22;14.50;93.20
23291;DHT22;11814;44.686;10.842;2023-04-09T07:52:47;14.50;93.40
23291;DHT22;11814;44.686;10.842;2023-04-09T07:55:13;14.70;93.80
23291;DHT22;11814;44.686;10.842;2023-04-09T07:57:39;15.10;94.20
23291;DHT22;11814;44.686;10.842;2023-04-09T08:00:05;15.40;93.60
23291;DHT22;11814;44.686;10.842;2023-04-09T08:02:31;15.50;93.00
23291;DHT22;11814;44.686;10.842;2023-04-09T08:04:57;15.80;92.80
23291;DHT22;11814;44.686;10.842;2023-04-09T08:07:23;16.40;92.10
23291;DHT22;11814;44.686;10.842;2023-04-09T08:09:49;16.70;91.00
23291;DHT22;11814;44.686;10.842;2023-04-09T08:12:15;17.10;90.50
23291;DHT22;11814;44.686;10.842;2023-04-09T08:14:40;17.60;88.80
23291;DHT22;11814;44.686;10.842;2023-04-09T08:17:06;17.70;85.80
23291;DHT22;11814;44.686;10.842;2023-04-09T08:19:32;17.40;84.60
23291;DHT22;11814;44.686;10.842;2023-04-09T08:21:57;17.10;84.80
23291;DHT22;11814;44.686;10.842;2023-04-09T08:24:23;17.00;85.30
23291;DHT22;11814;44.686;10.842;2023-04-09T08:26:49;16.90;85.70
23291;DHT22;11814;44.686;10.842;2023-04-09T08:29:15;16.80;86.00
23291;DHT22;11814;44.686;10.842;2023-04-09T08:31:40;16.80;86.20
23291;DHT22;11814;44.686;10.842;2023-04-09T08:34:06;16.60;86.10
23291;DHT22;11814;44.686;10.842;2023-04-09T08:36:32;16.40;86.70
23291;DHT22;11814;44.686;10.842;2023-04-09T08:39:00;16.30;87.40
23291;DHT22;11814;44.686;10.842;2023-04-09T08:41:26;16.10;87.80
23291;DHT22;11814;44.686;10.842;2023-04-09T08:43:56;16.00;88.50
23291;DHT22;11814;44.686;10.842;2023-04-09T08:46:23;16.00;89.10
23291;DHT22;11814;44.686;10.842;2023-04-09T08:48:50;15.90;89.20
23291;DHT22;11814;44.686;10.842;2023-04-09T08:51:18;16.00;89.90
23291;DHT22;11814;44.686;10.842;2023-04-09T08:53:48;16.20;89.80
23291;DHT22;11814;44.686;10.842;2023-04-09T08:56:18;16.20;89.50
23291;DHT22;11814;44.686;10.842;2023-04-09T08:58:46;16.20;89.40
23291;DHT22;11814;44.686;10.842;2023-04-09T09:01:26;16.00;89.20
23291;DHT22;11814;44.686;10.842;2023-04-09T09:03:58;15.90;89.60
23291;DHT22;11814;44.686;10.842;2023-04-09T09:06:26;15.80;90.00
23291;DHT22;11814;44.686;10.842;2023-04-09T09:11:27;15.90;90.30
23291;DHT22;11814;44.686;10.842;2023-04-09T09:16:38;16.00;90.20
23291;DHT22;11814;44.686;10.842;2023-04-09T09:19:05;16.20;90.30
23291;DHT22;11814;44.686;10.842;2023-04-09T09:21:31;16.40;90.10
23291;DHT22;11814;44.686;10.842;2023-04-09T09:23:58;16.50;89.20
23291;DHT22;11814;44.686;10.842;2023-04-09T09:26:27;16.50;89.00
23291;DHT22;11814;44.686;10.842;2023-04-09T09:28:55;16.60;88.90
23291;DHT22;11814;44.686;10.842;2023-04-09T09:31:23;16.70;88.60
23291;DHT22;11814;44.686;10.842;2023-04-09T09:33:49;16.70;87.60
23291;DHT22;11814;44.686;10.842;2023-04-09T09:36:30;16.80;86.80
23291;DHT22;11814;44.686;10.842;2023-04-09T09:38:57;17.10;86.90
23291;DHT22;11814;44.686;10.842;2023-04-09T09:41:24;17.10;86.00
23291;DHT22;11814;44.686;10.842;2023-04-09T09:43:50;16.90;85.60
23291;DHT22;11814;44.686;10.842;2023-04-09T09:46:16;16.60;85.20
23291;DHT22;11814;44.686;10.842;2023-04-09T09:48:43;16.50;85.30
23291;DHT22;11814;44.686;10.842;2023-04-09T09:51:14;16.40;85.10
23291;DHT22;11814;44.686;10.842;2023-04-09T09:53:43;16.30;85.00
23291;DHT22;11814;44.686;10.842;2023-04-09T09:56:18;16.20;84.80
23291;DHT22;11814;44.686;10.842;2023-04-09T09:59:09;16.10;84.30
23291;DHT22;11814;44.686;10.842;2023-04-09T10:01:37;16.10;84.00
23291;DHT22;11814;44.686;10.842;2023-04-09T10:04:05;16.20;83.70
23291;DHT22;11814;44.686;10.842;2023-04-09T10:06:42;16.40;83.40
23291;DHT22;11814;44.686;10.842;2023-04-09T10:09:09;16.80;82.80
23291;DHT22;11814;44.686;10.842;2023-04-09T10:11:36;17.00;81.40
23291;DHT22;11814;44.686;10.842;2023-04-09T10:14:03;17.10;81.00
23291;DHT22;11814;44.686;10.842;2023-04-09T10:16:30;17.20;80.70
23291;DHT22;11814;44.686;10.842;2023-04-09T10:18:57;17.20;80.50
23291;DHT22;11814;44.686;10.842;2023-04-09T10:21:51;17.30;80.50
23291;DHT22;11814;44.686;10.842;2023-04-09T10:24:19;17.20;79.40
23291;DHT22;11814;44.686;10.842;2023-04-09T10:26:45;17.20;79.90
23291;DHT22;11814;44.686;10.842;2023-04-09T10:29:15;17.30;78.40
23291;DHT22;11814;44.686;10.842;2023-04-09T10:32:04;17.30;77.50
23291;DHT22;11814;44.686;10.842;2023-04-09T10:34:42;17.40;76.60
23291;DHT22;11814;44.686;10.842;2023-04-09T10:37:29;17.20;75.80
23291;DHT22;11814;44.686;10.842;2023-04-09T10:39:56;17.20;76.00
23291;DHT22;11814;44.686;10.842;2023-04-09T10:42:34;17.30;75.90
23291;DHT22;11814;44.686;10.842;2023-04-09T10:47:32;17.40;75.40
23291;DHT22;11814;44.686;10.842;2023-04-09T10:50:13;17.50;74.10
23291;DHT22;11814;44.686;10.842;2023-04-09T10:52:40;17.70;73.50
23291;DHT22;11814;44.686;10.842;2023-04-09T10:55:07;17.70;73.30
23291;DHT22;11814;44.686;10.842;2023-04-09T10:57:32;17.70;73.40
23291;DHT22;11814;44.686;10.842;2023-04-09T10:59:58;17.60;73.10
23291;DHT22;11814;44.686;10.842;2023-04-09T11:02:53;17.50;73.20
23291;DHT22;11814;44.686;10.842;2023-04-09T11:05:29;17.20;74.10
23291;DHT22;11814;44.686;10.842;2023-04-09T11:08:12;17.10;74.90
23291;DHT22;11814;44.686;10.842;2023-04-09T11:10:42;16.90;75.20
23291;DHT22;11814;44.686;10.842;2023-04-09T11:13:13;16.80;75.60
23291;DHT22;11814;44.686;10.842;2023-04-09T11:15:39;16.90;76.10
23291;DHT22;11814;44.686;10.842;2023-04-09T11:18:05;17.00;75.70
23291;DHT22;11814;44.686;10.842;2023-04-09T11:20:33;17.00;75.10
23291;DHT22;11814;44.686;10.842;2023-04-09T11:22:59;17.20;75.00
23291;DHT22;11814;44.686;10.842;2023-04-09T11:25:30;17.40;74.80
23291;DHT22;11814;44.686;10.842;2023-04-09T11:27:56;17.70;73.90
23291;DHT22;11814;44.686;10.842;2023-04-09T11:30:22;17.90;73.10
23291;DHT22;11814;44.686;10.842;2023-04-09T11:32:49;18.00;72.40
23291;DHT22;11814;44.686;10.842;2023-04-09T11:35:19;18.10;72.00
23291;DHT22;11814;44.686;10.842;2023-04-09T11:37:46;18.00;71.30
23291;DHT22;11814;44.686;10.842;2023-04-09T11:42:42;18.30;70.60
23291;DHT22;11814;44.686;10.842;2023-04-09T11:45:10;18.40;69.40
23291;DHT22;11814;44.686;10.842;2023-04-09T11:47:38;18.20;69.00
23291;DHT22;11814;44.686;10.842;2023-04-09T11:50:07;18.20;69.00
23291;DHT22;11814;44.686;10.842;2023-04-09T11:52:33;18.10;68.80
23291;DHT22;11814;44.686;10.842;2023-04-09T11:55:04;18.00;69.10
23291;DHT22;11814;44.686;10.842;2023-04-09T11:57:41;17.90;69.90
23291;DHT22;11814;44.686;10.842;2023-04-09T12:00:12;17.80;70.00
23291;DHT22;11814;44.686;10.842;2023-04-09T12:02:44;17.70;70.50
23291;DHT22;11814;44.686;10.842;2023-04-09T12:05:19;17.80;70.00
23291;DHT22;11814;44.686;10.842;2023-04-09T12:07:45;17.70;70.00
23291;DHT22;11814;44.686;10.842;2023-04-09T12:10:11;17.50;70.00
23291;DHT22;11814;44.686;10.842;2023-04-09T12:15:25;17.30;70.00
23291;DHT22;11814;44.686;10.842;2023-04-09T12:17:56;17.30;69.90
23291;DHT22;11814;44.686;10.842;2023-04-09T12:20:42;17.50;69.90
23291;DHT22;11814;44.686;10.842;2023-04-09T12:23:11;17.70;69.70
23291;DHT22;11814;44.686;10.842;2023-04-09T12:25:39;17.90;69.00
23291;DHT22;11814;44.686;10.842;2023-04-09T12:28:08;18.00;67.80
23291;DHT22;11814;44.686;10.842;2023-04-09T12:30:34;18.10;67.30
23291;DHT22;11814;44.686;10.842;2023-04-09T12:33:02;18.10;66.40
23291;DHT22;11814;44.686;10.842;2023-04-09T12:35:28;18.10;66.70
23291;DHT22;11814;44.686;10.842;2023-04-09T12:37:54;18.10;66.80
23291;DHT22;11814;44.686;10.842;2023-04-09T12:40:20;18.00;66.60
23291;DHT22;11814;44.686;10.842;2023-04-09T12:42:46;18.00;66.50
23291;DHT22;11814;44.686;10.842;2023-04-09T12:45:14;18.10;66.10
23291;DHT22;11814;44.686;10.842;2023-04-09T12:47:41;18.20;65.60
23291;DHT22;11814;44.686;10.842;2023-04-09T12:50:08;18.20;65.30
23291;DHT22;11814;44.686;10.842;2023-04-09T12:52:34;18.20;65.70
23291;DHT22;11814;44.686;10.842;2023-04-09T12:55:00;18.00;65.40
23291;DHT22;11814;44.686;10.842;2023-04-09T12:57:27;17.80;65.90
23291;DHT22;11814;44.686;10.842;2023-04-09T12:59:53;17.70;66.40
23291;DHT22;11814;44.686;10.842;2023-04-09T13:02:19;17.70;66.00
23291;DHT22;11814;44.686;10.842;2023-04-09T13:04:46;17.80;66.00
23291;DHT22;11814;44.686;10.842;2023-04-09T13:07:12;17.80;65.60
23291;DHT22;11814;44.686;10.842;2023-04-09T13:09:40;17.80;65.30
23291;DHT22;11814;44.686;10.842;2023-04-09T13:12:06;17.90;65.20
23291;DHT22;11814;44.686;10.842;2023-04-09T13:14:32;18.00;64.70
23291;DHT22;11814;44.686;10.842;2023-04-09T13:16:58;18.10;64.70
23291;DHT22;11814;44.686;10.842;2023-04-09T13:19:24;18.30;64.50
23291;DHT22;11814;44.686;10.842;2023-04-09T13:21:50;18.30;63.90
23291;DHT22;11814;44.686;10.842;2023-04-09T13:24:16;18.30;63.50
23291;DHT22;11814;44.686;10.842;2023-04-09T13:26:41;18.30;63.80
23291;DHT22;11814;44.686;10.842;2023-04-09T13:29:07;18.30;63.90
23291;DHT22;11814;44.686;10.842;2023-04-09T13:31:35;18.40;64.00
23291;DHT22;11814;44.686;10.842;2023-04-09T13:34:01;18.40;63.30
23291;DHT22;11814;44.686;10.842;2023-04-09T13:36:28;18.40;63.20
23291;DHT22;11814;44.686;10.842;2023-04-09T13:38:54;18.40;62.40
23291;DHT22;11814;44.686;10.842;2023-04-09T13:41:20;18.30;62.50
23291;DHT22;11814;44.686;10.842;2023-04-09T13:43:52;18.30;62.30
23291;DHT22;11814;44.686;10.842;2023-04-09T13:46:18;18.30;62.20
23291;DHT22;11814;44.686;10.842;2023-04-09T13:48:43;18.40;61.90
23291;DHT22;11814;44.686;10.842;2023-04-09T13:51:09;18.40;60.70
23291;DHT22;11814;44.686;10.842;2023-04-09T13:53:35;18.40;61.00
23291;DHT22;11814;44.686;10.842;2023-04-09T13:56:01;18.40;60.70
23291;DHT22;11814;44.686;10.842;2023-04-09T13:58:27;18.50;60.50
23291;DHT22;11814;44.686;10.842;2023-04-09T14:00:52;18.50;60.00
23291;DHT22;11814;44.686;10.842;2023-04-09T14:03:18;18.40;59.60
23291;DHT22;11814;44.686;10.842;2023-04-09T14:05:44;18.30;59.80
23291;DHT22;11814;44.686;10.842;2023-04-09T14:08:09;18.40;59.80
23291;DHT22;11814;44.686;10.842;2023-04-09T14:10:36;18.50;60.00
23291;DHT22;11814;44.686;10.842;2023-04-09T14:13:02;18.40;59.30
23291;DHT22;11814;44.686;10.842;2023-04-09T14:15:32;18.40;59.50
23291;DHT22;11814;44.686;10.842;2023-04-09T14:17:58;18.40;59.10
23291;DHT22;11814;44.686;10.842;2023-04-09T14:20:23;18.40;58.90
23291;DHT22;11814;44.686;10.842;2023-04-09T14:22:49;18.40;58.80
23291;DHT22;11814;44.686;10.842;2023-04-09T14:25:16;18.50;58.90
23291;DHT22;11814;44.686;10.842;2023-04-09T14:27:41;18.50;58.70
23291;DHT22;11814;44.686;10.842;2023-04-09T14:30:08;18.50;58.40
23291;DHT22;11814;44.686;10.842;2023-04-09T14:32:34;18.50;58.00
23291;DHT22;11814;44.686;10.842;2023-04-09T14:35:00;18.50;57.70
23291;DHT22;11814;44.686;10.842;2023-04-09T14:37:26;18.50;57.20
23291;DHT22;11814;44.686;10.842;2023-04-09T14:39:52;18.60;57.00
23291;DHT22;11814;44.686;10.842;2023-04-09T14:42:18;18.50;57.00
23291;DHT22;11814;44.686;10.842;2023-04-09T14:44:44;18.50;57.30
23291;DHT22;11814;44.686;10.842;2023-04-09T14:47:10;18.50;57.80
23291;DHT22;11814;44.686;10.842;2023-04-09T14:49:35;18.50;58.40
23291;DHT22;11814;44.686;10.842;2023-04-09T14:52:01;18.50;59.30
23291;DHT22;11814;44.686;10.842;2023-04-09T14:54:27;18.50;59.40
23291;DHT22;11814;44.686;10.842;2023-04-09T14:56:54;18.50;59.60
23291;DHT22;11814;44.686;10.842;2023-04-09T14:59:22;18.40;59.60
23291;DHT22;11814;44.686;10.842;2023-04-09T15:01:48;18.40;59.80
23291;DHT22;11814;44.686;10.842;2023-04-09T15:04:14;18.50;59.80
23291;DHT22;11814;44.686;10.842;2023-04-09T15:06:40;18.50;60.00
23291;DHT22;11814;44.686;10.842;2023-04-09T15:09:06;18.50;59.80
23291;DHT22;11814;44.686;10.842;2023-04-09T15:11:32;18.30;59.50
23291;DHT22;11814;44.686;10.842;2023-04-09T15:13:57;18.10;59.80
23291;DHT22;11814;44.686;10.842;2023-04-09T15:16:24;17.90;59.90
23291;DHT22;11814;44.686;10.842;2023-04-09T15:18:52;17.90;60.10
23291;DHT22;11814;44.686;10.842;2023-04-09T15:21:20;17.90;59.80
23291;DHT22;11814;44.686;10.842;2023-04-09T15:23:46;17.80;59.60
23291;DHT22;11814;44.686;10.842;2023-04-09T15:26:11;17.90;59.70
23291;DHT22;11814;44.686;10.842;2023-04-09T15:28:37;17.90;59.40
23291;DHT22;11814;44.686;10.842;2023-04-09T15:31:03;18.00;59.30
23291;DHT22;11814;44.686;10.842;2023-04-09T15:33:29;18.00;59.10
23291;DHT22;11814;44.686;10.842;2023-04-09T15:35:58;17.90;58.80
23291;DHT22;11814;44.686;10.842;2023-04-09T15:38:23;17.90;58.90